Time,TemperatureF,DewpointF,PressureIn,WindDirection,WindDirectionDegrees,WindSpeedMPH,WindSpeedGustMPH,Humidity,HourlyPrecipIn,Conditions,Clouds,dailyrainin,SoftwareType,DateUTC
2013-06-15 00:00:00,62.4,56.2,29.99,NW,315,0.0,0.0,80,0.00,OVC,OVC,0.00,WeatherDisplay:10.37,2013-06-15 04:00:00,
2013-06-15 00:01:00,62.2,56.0,30.00,NW,315,0.0,0.0,80,0.00,OVC,OVC,0.00,WeatherDisplay:10.37,2013-06-15 04:01:00,
2013-06-15 00:04:00,62.1,55.8,30.00,NW,315,0.0,0.0,80,0.00,OVC,OVC,0.00,WeatherDisplay:10.37,2013-06-15 04:04:00,
2013-06-15 00:06:00,62.1,55.8,30.00,NW,315,0.0,0.0,80,0.00,OVC,OVC,0.00,WeatherDisplay:10.37,2013-06-15 04:06:00,
2013-06-15 00:07:00,61.9,55.6,30.00,NW,315,0.0,0.0,80,0.00,OVC,OVC,0.00,WeatherDisplay:10.37,2013-06-15 04:07:00,
2013-06-15 00:12:00,61.9,55.6,30.00,NW,315,0.0,0.0,80,0.00,OVC,OVC,0.00,WeatherDisplay:10.37,2013-06-15 04:12:00,
2013-06-15 00:16:00,61.9,55.6,30.00,NW,315,0.0,0.0,80,0.00,OVC,OVC,0.00,WeatherDisplay:10.37,2013-06-15 04:16:00,
2013-06-15 00:21:00,61.7,55.5,30.00,NW,315,0.0,0.0,80,0.00,OVC,OVC,0.00,WeatherDisplay:10.37,2013-06-15 04:21:00,
2013-06-15 00:26:00,61.5,55.6,30.00,NW,315,0.0,0.0,81,0.00,OVC,OVC,0.00,WeatherDisplay:10.37,2013-06-15 04:26:00,
2013-06-15 00:31:00,61.5,55.6,30.00,West,270,0.0,0.0,81,0.00,OVC,OVC,0.00,WeatherDisplay:10.37,2013-06-15 04:31:00,
2013-06-15 00:36:00,61.3,55.5,30.00,West,270,0.0,0.0,81,0.00,OVC,OVC,0.00,WeatherDisplay:10.37,2013-06-15 04:36:00,
2013-06-15 00:41:00,61.2,55.3,30.00,NW,315,0.0,0.0,81,0.00,OVC,OVC,0.00,WeatherDisplay:10.37,2013-06-15 04:41:00,
2013-06-15 00:46:00,61.0,55.8,29.98,NW,315,0.0,0.0,83,0.00,OVC,OVC,0.00,WeatherDisplay:10.37,2013-06-15 04:46:00,
2013-06-15 00:51:00,61.0,55.8,29.98,NW,315,0.0,0.0,83,0.00,OVC,OVC,0.00,WeatherDisplay:10.37,2013-06-15 04:51:00,
2013-06-15 00:56:00,61.0,55.8,29.98,NW,315,0.0,0.0,83,0.00,OVC,OVC,0.00,WeatherDisplay:10.37,2013-06-15 04:56:00,
2013-06-15 01:01:00,61.0,55.8,29.98,NW,315,0.0,0.0,83,0.00,OVC,OVC,0.00,WeatherDisplay:10.37,2013-06-15 05:01:00,
2013-06-15 01:06:00,61.0,55.8,29.98,NW,315,0.0,0.0,83,0.00,OVC,OVC,0.00,WeatherDisplay:10.37,2013-06-15 05:06:00,
2013-06-15 01:11:00,61.0,55.8,29.98,SW,225,0.0,0.0,83,0.00,OVC,OVC,0.00,WeatherDisplay:10.37,2013-06-15 05:11:00,
2013-06-15 01:16:00,60.6,55.4,29.98,SW,225,0.0,0.0,83,0.00,OVC,OVC,0.00,WeatherDisplay:10.37,2013-06-15 05:16:00,
2013-06-15 01:21:00,60.4,55.6,29.98,SW,225,0.0,0.0,84,0.00,OVC,OVC,0.00,WeatherDisplay:10.37,2013-06-15 05:21:00,
2013-06-15 01:26:00,60.4,55.6,29.98,SW,225,0.0,0.0,84,0.00,OVC,OVC,0.00,WeatherDisplay:10.37,2013-06-15 05:26:00,
2013-06-15 01:31:00,60.4,55.6,29.98,SW,225,0.0,0.0,84,0.00,OVC,OVC,0.00,WeatherDisplay:10.37,2013-06-15 05:31:00,
2013-06-15 01:36:00,60.3,55.4,29.98,SW,225,0.0,0.0,84,0.00,OVC,OVC,0.00,WeatherDisplay:10.37,2013-06-15 05:36:00,
2013-06-15 01:41:00,60.1,55.2,29.98,SW,225,0.0,0.0,84,0.00,OVC,OVC,0.00,WeatherDisplay:10.37,2013-06-15 05:41:00,
2013-06-15 01:46:00,60.1,55.2,29.98,SW,225,0.0,0.0,84,0.00,OVC,OVC,0.00,WeatherDisplay:10.37,2013-06-15 05:46:00,
2013-06-15 01:51:00,60.1,55.6,29.97,SW,225,0.0,0.0,85,0.00,OVC,OVC,0.00,WeatherDisplay:10.37,2013-06-15 05:51:00,
2013-06-15 01:56:00,60.1,55.6,29.97,West,270,0.0,0.0,85,0.00,OVC,OVC,0.00,WeatherDisplay:10.37,2013-06-15 05:56:00,
2013-06-15 02:01:00,60.1,55.6,29.97,West,270,0.0,0.0,85,0.00,OVC,OVC,0.00,WeatherDisplay:10.37,2013-06-15 06:01:00,
2013-06-15 02:06:00,59.5,55.0,29.97,West,270,0.0,0.0,85,0.00,OVC,OVC,0.00,WeatherDisplay:10.37,2013-06-15 06:06:00,
2013-06-15 02:11:00,59.5,55.0,29.97,West,270,0.0,0.0,85,0.00,OVC,OVC,0.00,WeatherDisplay:10.37,2013-06-15 06:11:00,
2013-06-15 02:16:00,59.5,55.0,29.97,SW,225,0.0,0.0,85,0.00,OVC,OVC,0.00,WeatherDisplay:10.37,2013-06-15 06:16:00,
2013-06-15 02:21:00,59.4,54.8,29.97,SSE,158,0.0,0.0,85,0.00,OVC,OVC,0.00,WeatherDisplay:10.37,2013-06-15 06:21:00,
2013-06-15 02:26:00,59.4,54.8,29.97,West,270,0.0,0.0,85,0.00,OVC,OVC,0.00,WeatherDisplay:10.37,2013-06-15 06:26:00,
2013-06-15 02:31:00,59.2,55.0,29.97,West,270,0.0,0.0,86,0.00,OVC,OVC,0.00,WeatherDisplay:10.37,2013-06-15 06:31:00,
2013-06-15 02:36:00,59.0,54.8,29.97,SSE,158,0.0,0.0,86,0.00,OVC,OVC,0.00,WeatherDisplay:10.37,2013-06-15 06:36:00,
2013-06-15 02:41:00,59.0,54.8,29.97,SSE,158,0.0,0.0,86,0.00,OVC,OVC,0.00,WeatherDisplay:10.37,2013-06-15 06:41:00,
2013-06-15 02:46:00,59.2,55.0,29.98,South,180,0.0,0.0,86,0.00,OVC,OVC,0.00,WeatherDisplay:10.37,2013-06-15 06:46:00,
2013-06-15 02:51:00,59.0,54.8,29.98,South,180,0.0,0.0,86,0.00,OVC,OVC,0.00,WeatherDisplay:10.37,2013-06-15 06:51:00,
2013-06-15 02:56:00,58.8,54.6,29.98,South,180,0.0,0.0,86,0.00,OVC,OVC,0.00,WeatherDisplay:10.37,2013-06-15 06:56:00,
2013-06-15 03:01:00,58.8,54.6,29.98,South,180,0.0,0.0,86,0.00,OVC,OVC,0.00,WeatherDisplay:10.37,2013-06-15 07:01:00,
2013-06-15 03:06:00,58.8,54.6,29.98,SW,225,0.0,0.0,86,0.00,OVC,OVC,0.00,WeatherDisplay:10.37,2013-06-15 07:06:00,
2013-06-15 03:11:00,58.8,54.6,29.98,SW,225,0.0,0.0,86,0.00,OVC,OVC,0.00,WeatherDisplay:10.37,2013-06-15 07:11:00,
2013-06-15 03:16:00,58.6,54.5,30.00,West,270,0.0,0.0,86,0.00,OVC,OVC,0.00,WeatherDisplay:10.37,2013-06-15 07:16:00,
2013-06-15 03:21:00,58.6,54.5,29.99,SE,135,0.0,0.0,86,0.00,OVC,OVC,0.00,WeatherDisplay:10.37,2013-06-15 07:21:00,
2013-06-15 03:26:00,58.5,54.3,29.99,SE,135,0.0,0.0,86,0.00,OVC,OVC,0.00,WeatherDisplay:10.37,2013-06-15 07:26:00,
2013-06-15 03:31:00,58.5,54.3,29.99,WSW,248,0.0,0.0,86,0.00,OVC,OVC,0.00,WeatherDisplay:10.37,2013-06-15 07:31:00,
2013-06-15 03:36:00,58.5,54.3,29.99,West,270,0.0,0.0,86,0.00,OVC,OVC,0.00,WeatherDisplay:10.37,2013-06-15 07:36:00,
2013-06-15 03:41:00,58.5,54.3,29.99,SSE,158,0.0,0.0,86,0.00,OVC,OVC,0.00,WeatherDisplay:10.37,2013-06-15 07:41:00,
2013-06-15 03:46:00,58.5,54.3,29.99,SSE,158,0.0,0.0,86,0.00,OVC,OVC,0.00,WeatherDisplay:10.37,2013-06-15 07:46:00,
2013-06-15 03:51:00,58.6,54.5,29.99,South,180,0.0,0.0,86,0.00,OVC,OVC,0.00,WeatherDisplay:10.37,2013-06-15 07:51:00,
2013-06-15 03:56:00,58.8,54.6,29.98,SSE,158,0.0,0.0,86,0.00,OVC,OVC,0.00,WeatherDisplay:10.37,2013-06-15 07:56:00,
2013-06-15 04:01:00,59.0,54.8,29.99,SSE,158,0.0,0.0,86,0.00,OVC,OVC,0.00,WeatherDisplay:10.37,2013-06-15 08:01:00,
2013-06-15 04:06:00,59.0,54.8,29.99,SSE,158,0.0,0.0,86,0.00,OVC,OVC,0.00,WeatherDisplay:10.37,2013-06-15 08:06:00,
2013-06-15 04:11:00,59.4,54.8,29.99,South,180,0.0,0.0,85,0.00,OVC,OVC,0.00,WeatherDisplay:10.37,2013-06-15 08:11:00,
2013-06-15 04:16:00,59.4,54.8,29.99,South,180,0.0,0.0,85,0.00,OVC,OVC,0.00,WeatherDisplay:10.37,2013-06-15 08:16:00,
2013-06-15 04:21:00,59.5,55.0,29.99,SSE,158,0.0,0.0,85,0.00,OVC,OVC,0.00,WeatherDisplay:10.37,2013-06-15 08:21:00,
2013-06-15 04:26:00,59.5,54.7,29.99,SSE,158,0.0,0.0,84,0.00,OVC,OVC,0.00,WeatherDisplay:10.37,2013-06-15 08:26:00,
2013-06-15 04:31:00,59.5,54.7,29.99,SSW,202,0.0,0.0,84,0.00,OVC,OVC,0.00,WeatherDisplay:10.37,2013-06-15 08:31:00,
2013-06-15 04:36:00,59.5,54.4,29.99,SSW,202,0.0,0.0,83,0.00,OVC,OVC,0.00,WeatherDisplay:10.37,2013-06-15 08:36:00,
2013-06-15 04:41:00,59.5,54.4,29.99,SSW,202,0.0,0.0,83,0.00,OVC,OVC,0.00,WeatherDisplay:10.37,2013-06-15 08:41:00,
2013-06-15 04:46:00,59.5,54.4,29.99,SSE,158,0.0,0.0,83,0.00,OVC,OVC,0.00,WeatherDisplay:10.37,2013-06-15 08:46:00,
2013-06-15 04:51:00,59.5,54.4,29.99,SE,135,0.0,0.0,83,0.00,OVC,OVC,0.00,WeatherDisplay:10.37,2013-06-15 08:51:00,
2013-06-15 04:56:00,59.5,54.4,29.99,SSE,158,0.0,0.0,83,0.00,OVC,OVC,0.00,WeatherDisplay:10.37,2013-06-15 08:56:00,
2013-06-15 05:01:00,59.5,54.4,29.99,SE,135,0.0,0.0,83,0.00,OVC,OVC,0.00,WeatherDisplay:10.37,2013-06-15 09:01:00,
2013-06-15 05:06:00,59.5,54.4,29.99,SSE,158,0.0,0.0,83,0.00,OVC,OVC,0.00,WeatherDisplay:10.37,2013-06-15 09:06:00,
2013-06-15 05:12:00,59.5,54.4,29.99,SSE,158,0.0,0.0,83,0.00,OVC,OVC,0.00,WeatherDisplay:10.37,2013-06-15 09:12:00,
2013-06-15 05:17:00,59.5,54.4,29.99,SSE,158,0.0,0.0,83,0.00,OVC,OVC,0.00,WeatherDisplay:10.37,2013-06-15 09:17:00,
2013-06-15 05:22:00,59.4,54.2,29.99,SSE,158,0.0,0.0,83,0.00,OVC,OVC,0.00,WeatherDisplay:10.37,2013-06-15 09:22:00,
2013-06-15 05:27:00,59.4,54.2,29.99,SE,135,0.0,0.0,83,0.00,OVC,OVC,0.00,WeatherDisplay:10.37,2013-06-15 09:27:00,
2013-06-15 05:32:00,59.4,54.5,29.99,SSE,158,0.0,0.0,84,0.00,OVC,OVC,0.00,WeatherDisplay:10.37,2013-06-15 09:32:00,
2013-06-15 05:37:00,59.2,54.3,29.99,SSE,158,0.0,0.0,84,0.00,OVC,OVC,0.00,WeatherDisplay:10.37,2013-06-15 09:37:00,
2013-06-15 05:42:00,59.2,54.3,29.99,SSE,158,0.0,0.0,84,0.00,OVC,OVC,0.00,WeatherDisplay:10.37,2013-06-15 09:42:00,
2013-06-15 05:47:00,59.2,54.3,29.99,South,180,0.0,0.0,84,0.00,OVC,OVC,0.00,WeatherDisplay:10.37,2013-06-15 09:47:00,
2013-06-15 05:52:00,59.0,54.2,29.99,South,180,0.0,0.0,84,0.00,OVC,OVC,0.00,WeatherDisplay:10.37,2013-06-15 09:52:00,
2013-06-15 05:57:00,58.8,54.0,29.99,South,180,0.0,0.0,84,0.00,OVC,OVC,0.00,WeatherDisplay:10.37,2013-06-15 09:57:00,
2013-06-15 06:02:00,58.8,54.0,29.99,South,180,0.0,0.0,84,0.00,OVC,OVC,0.00,WeatherDisplay:10.37,2013-06-15 10:02:00,
2013-06-15 06:07:00,58.8,54.0,29.99,South,180,0.0,0.0,84,0.00,OVC,OVC,0.00,WeatherDisplay:10.37,2013-06-15 10:07:00,
2013-06-15 06:12:00,58.8,54.0,29.99,South,180,0.0,0.0,84,0.00,OVC,OVC,0.00,WeatherDisplay:10.37,2013-06-15 10:12:00,
2013-06-15 06:17:00,58.8,54.0,29.99,South,180,0.0,0.0,84,0.00,OVC,OVC,0.00,WeatherDisplay:10.37,2013-06-15 10:17:00,
2013-06-15 06:22:00,58.8,54.0,29.99,WNW,292,0.0,0.0,84,0.00,OVC,OVC,0.00,WeatherDisplay:10.37,2013-06-15 10:22:00,
2013-06-15 06:27:00,58.8,54.0,29.99,West,270,0.0,0.0,84,0.00,OVC,OVC,0.00,WeatherDisplay:10.37,2013-06-15 10:27:00,
2013-06-15 06:32:00,58.8,54.0,29.99,WSW,248,0.0,0.0,84,0.00,OVC,OVC,0.00,WeatherDisplay:10.37,2013-06-15 10:32:00,
2013-06-15 06:37:00,58.8,54.3,29.99,West,270,0.0,0.0,85,0.00,OVC,OVC,0.00,WeatherDisplay:10.37,2013-06-15 10:37:00,
2013-06-15 06:42:00,58.8,54.3,29.99,West,270,0.0,0.0,85,0.00,OVC,OVC,0.00,WeatherDisplay:10.37,2013-06-15 10:42:00,
2013-06-15 06:47:00,59.2,54.7,30.01,NW,315,0.0,0.0,85,0.00,OVC,OVC,0.00,WeatherDisplay:10.37,2013-06-15 10:47:00,
2013-06-15 06:52:00,59.4,54.8,30.01,WNW,292,0.0,0.0,85,0.00,OVC,OVC,0.00,WeatherDisplay:10.37,2013-06-15 10:52:00,
2013-06-15 06:57:00,59.5,55.0,30.01,WSW,248,0.0,0.0,85,0.00,OVC,OVC,0.00,WeatherDisplay:10.37,2013-06-15 10:57:00,
2013-06-15 07:02:00,60.1,55.6,30.01,WSW,248,0.0,0.0,85,0.00,OVC,OVC,0.00,WeatherDisplay:10.37,2013-06-15 11:02:00,
2013-06-15 07:07:00,60.4,55.9,30.01,West,270,0.0,0.0,85,0.00,OVC,OVC,0.00,WeatherDisplay:10.37,2013-06-15 11:07:00,
2013-06-15 07:12:00,60.6,56.1,30.01,West,270,0.0,0.0,85,0.00,OVC,OVC,0.00,WeatherDisplay:10.37,2013-06-15 11:12:00,
2013-06-15 07:17:00,61.2,56.6,30.01,WSW,248,0.0,0.0,85,0.00,OVC,OVC,0.00,WeatherDisplay:10.37,2013-06-15 11:17:00,
2013-06-15 07:22:00,61.3,56.8,30.01,West,270,0.0,0.0,85,0.00,OVC,OVC,0.00,WeatherDisplay:10.37,2013-06-15 11:22:00,
2013-06-15 07:27:00,62.1,57.5,30.01,WNW,292,0.0,0.0,85,0.00,OVC,OVC,0.00,WeatherDisplay:10.37,2013-06-15 11:27:00,
2013-06-15 07:32:00,62.4,57.5,30.01,WSW,248,0.0,0.0,84,0.00,OVC,OVC,0.00,WeatherDisplay:10.37,2013-06-15 11:32:00,
2013-06-15 07:37:00,62.6,57.7,30.01,NW,315,0.0,0.0,84,0.00,OVC,OVC,0.00,WeatherDisplay:10.37,2013-06-15 11:37:00,
2013-06-15 07:42:00,63.0,58.0,30.01,WSW,248,0.0,0.0,84,0.00,OVC,OVC,0.00,WeatherDisplay:10.37,2013-06-15 11:42:00,
2013-06-15 07:47:00,63.3,58.1,30.02,SW,225,0.0,0.0,83,0.00,OVC,OVC,0.00,WeatherDisplay:10.37,2013-06-15 11:47:00,
2013-06-15 07:52:00,64.0,58.8,30.02,WSW,248,2.3,2.3,83,0.00,OVC,OVC,0.00,WeatherDisplay:10.37,2013-06-15 11:52:00,
2013-06-15 07:57:00,64.2,58.9,30.02,WSW,248,0.0,0.0,83,0.00,OVC,OVC,0.00,WeatherDisplay:10.37,2013-06-15 11:57:00,
2013-06-15 08:02:00,64.6,59.0,30.02,WSW,248,1.2,1.4,82,0.00,OVC,OVC,0.00,WeatherDisplay:10.37,2013-06-15 12:02:00,
2013-06-15 08:07:00,64.6,59.0,30.02,West,270,2.3,0.0,82,0.00,OVC,OVC,0.00,WeatherDisplay:10.37,2013-06-15 12:07:00,
2013-06-15 08:12:00,65.5,59.8,30.02,WSW,248,2.3,2.3,82,0.00,OVC,OVC,0.00,WeatherDisplay:10.37,2013-06-15 12:12:00,
2013-06-15 08:17:00,66.0,59.7,30.03,WSW,248,0.0,0.0,80,0.00,OVC,OVC,0.00,WeatherDisplay:10.37,2013-06-15 12:17:00,
2013-06-15 08:22:00,66.6,60.2,30.03,NNW,338,1.2,1.2,80,0.00,OVC,OVC,0.00,WeatherDisplay:10.37,2013-06-15 12:22:00,
2013-06-15 08:27:00,66.7,60.4,30.03,WSW,248,3.5,3.5,80,0.00,OVC,OVC,0.00,WeatherDisplay:10.37,2013-06-15 12:27:00,
2013-06-15 08:32:00,66.7,60.4,30.03,SSW,202,0.0,3.2,80,0.00,OVC,OVC,0.00,WeatherDisplay:10.37,2013-06-15 12:32:00,
2013-06-15 08:37:00,66.7,59.3,30.03,WSW,248,2.3,2.3,77,0.00,OVC,OVC,0.00,WeatherDisplay:10.37,2013-06-15 12:37:00,
2013-06-15 08:42:00,66.9,59.5,30.03,West,270,0.0,0.0,77,0.00,OVC,OVC,0.00,WeatherDisplay:10.37,2013-06-15 12:42:00,
2013-06-15 08:47:00,67.3,59.8,30.02,SW,225,3.5,3.5,77,0.00,OVC,OVC,0.00,WeatherDisplay:10.37,2013-06-15 12:47:00,
2013-06-15 08:52:00,68.2,60.7,30.02,West,270,2.3,2.3,77,0.00,OVC,OVC,0.00,WeatherDisplay:10.37,2013-06-15 12:52:00,
2013-06-15 08:57:00,68.4,60.9,30.02,West,270,0.0,2.2,77,0.00,OVC,OVC,0.00,WeatherDisplay:10.37,2013-06-15 12:57:00,
2013-06-15 09:02:00,68.2,60.0,30.02,West,270,0.0,0.0,75,0.00,OVC,OVC,0.00,WeatherDisplay:10.37,2013-06-15 13:02:00,
2013-06-15 09:07:00,68.2,60.0,30.02,WSW,248,3.5,3.5,75,0.00,OVC,OVC,0.00,WeatherDisplay:10.37,2013-06-15 13:07:00,
2013-06-15 09:12:00,68.5,60.3,30.02,WSW,248,2.3,2.3,75,0.00,OVC,OVC,0.00,WeatherDisplay:10.37,2013-06-15 13:12:00,
2013-06-15 09:17:00,68.5,60.3,30.02,West,270,0.0,0.1,75,0.00,OVC,OVC,0.00,WeatherDisplay:10.37,2013-06-15 13:17:00,
2013-06-15 09:22:00,68.9,60.6,30.02,SSW,202,2.3,2.3,75,0.00,OVC,OVC,0.00,WeatherDisplay:10.37,2013-06-15 13:22:00,
2013-06-15 09:27:00,69.1,60.4,30.02,West,270,0.0,0.7,74,0.00,OVC,OVC,0.00,WeatherDisplay:10.37,2013-06-15 13:27:00,
2013-06-15 09:32:00,69.4,60.8,30.02,SW,225,1.2,1.2,74,0.00,OVC,OVC,0.00,WeatherDisplay:10.37,2013-06-15 13:32:00,
2013-06-15 09:37:00,69.4,60.4,30.02,West,270,2.3,2.3,73,0.00,OVC,OVC,0.00,WeatherDisplay:10.37,2013-06-15 13:37:00,
2013-06-15 09:42:00,70.2,61.1,30.02,West,270,5.8,5.8,73,0.00,OVC,OVC,0.00,WeatherDisplay:10.37,2013-06-15 13:42:00,
2013-06-15 09:47:00,70.3,61.3,30.02,WSW,248,1.2,1.2,73,0.00,OVC,OVC,0.00,WeatherDisplay:10.37,2013-06-15 13:47:00,
2013-06-15 09:52:00,70.7,60.8,30.02,SSW,202,0.0,0.0,71,0.00,OVC,OVC,0.00,WeatherDisplay:10.37,2013-06-15 13:52:00,
2013-06-15 09:57:00,71.1,61.6,30.01,SSW,202,2.3,2.3,72,0.00,OVC,OVC,0.00,WeatherDisplay:10.37,2013-06-15 13:57:00,
2013-06-15 10:02:00,71.2,61.7,30.01,WSW,248,4.5,4.5,72,0.00,OVC,OVC,0.00,WeatherDisplay:10.37,2013-06-15 14:02:00,
2013-06-15 10:07:00,71.6,61.3,30.01,WNW,292,3.5,3.5,70,0.00,OVC,OVC,0.00,WeatherDisplay:10.37,2013-06-15 14:07:00,
2013-06-15 10:12:00,71.8,61.1,30.01,West,270,0.0,0.1,69,0.00,OVC,OVC,0.00,WeatherDisplay:10.37,2013-06-15 14:12:00,
2013-06-15 10:17:00,72.1,61.4,30.01,WSW,248,2.3,2.3,69,0.00,OVC,OVC,0.00,WeatherDisplay:10.37,2013-06-15 14:17:00,
2013-06-15 10:22:00,72.5,61.7,30.00,WSW,248,2.2,0.0,69,0.00,OVC,OVC,0.00,WeatherDisplay:10.37,2013-06-15 14:22:00,
2013-06-15 10:27:00,73.0,62.3,30.00,WSW,248,3.5,3.5,69,0.00,OVC,OVC,0.00,WeatherDisplay:10.37,2013-06-15 14:27:00,
2013-06-15 10:32:00,73.2,62.4,30.00,WNW,292,2.3,2.3,69,0.00,OVC,OVC,0.00,WeatherDisplay:10.37,2013-06-15 14:32:00,
2013-06-15 10:37:00,73.2,61.2,30.00,WSW,248,4.6,4.6,66,0.00,OVC,OVC,0.00,WeatherDisplay:10.37,2013-06-15 14:37:00,
2013-06-15 10:42:00,73.2,61.2,30.00,West,270,2.3,2.7,66,0.00,OVC,OVC,0.00,WeatherDisplay:10.37,2013-06-15 14:42:00,
2013-06-15 10:47:00,73.9,61.9,30.00,SE,135,0.0,0.0,66,0.00,OVC,OVC,0.00,WeatherDisplay:10.37,2013-06-15 14:47:00,
2013-06-15 10:52:00,74.1,62.0,29.99,WSW,248,1.2,2.6,66,0.00,OVC,OVC,0.00,WeatherDisplay:10.37,2013-06-15 14:52:00,
2013-06-15 10:57:00,74.5,62.4,29.99,North,0,5.8,6.0,66,0.00,OVC,OVC,0.00,WeatherDisplay:10.37,2013-06-15 14:57:00,
2013-06-15 11:02:00,74.7,61.2,29.99,West,270,3.5,3.5,63,0.00,OVC,OVC,0.00,WeatherDisplay:10.37,2013-06-15 15:02:00,
2013-06-15 11:07:00,74.7,61.2,29.99,WSW,248,4.6,4.6,63,0.00,OVC,OVC,0.00,WeatherDisplay:10.37,2013-06-15 15:07:00,
2013-06-15 11:12:00,74.7,61.2,29.99,SSW,202,3.5,3.5,63,0.00,OVC,OVC,0.00,WeatherDisplay:10.37,2013-06-15 15:12:00,
2013-06-15 11:17:00,75.4,61.0,29.99,West,270,2.3,2.3,61,0.00,OVC,OVC,0.00,WeatherDisplay:10.37,2013-06-15 15:17:00,
2013-06-15 11:22:00,75.6,61.2,29.99,SSW,202,0.0,3.5,61,0.00,OVC,OVC,0.00,WeatherDisplay:10.37,2013-06-15 15:22:00,
2013-06-15 11:27:00,75.9,61.0,29.98,WSW,248,2.3,2.3,60,0.00,OVC,OVC,0.00,WeatherDisplay:10.37,2013-06-15 15:27:00,
2013-06-15 11:32:00,76.3,61.4,29.98,SW,225,0.0,2.2,60,0.00,OVC,OVC,0.00,WeatherDisplay:10.37,2013-06-15 15:32:00,
2013-06-15 11:37:00,76.8,61.9,29.98,SSW,202,0.0,0.0,60,0.00,OVC,OVC,0.00,WeatherDisplay:10.37,2013-06-15 15:37:00,
2013-06-15 11:43:00,77.0,62.0,29.98,West,270,0.0,0.0,60,0.00,OVC,OVC,0.00,WeatherDisplay:10.37,2013-06-15 15:43:00,
2013-06-15 11:48:00,77.7,62.7,29.98,West,270,3.5,3.5,60,0.00,OVC,OVC,0.00,WeatherDisplay:10.37,2013-06-15 15:48:00,
2013-06-15 11:53:00,77.9,62.9,29.98,West,270,2.3,2.6,60,0.00,OVC,OVC,0.00,WeatherDisplay:10.37,2013-06-15 15:53:00,
2013-06-15 11:58:00,78.1,63.1,29.98,West,270,1.2,2.0,60,0.00,OVC,OVC,0.00,WeatherDisplay:10.37,2013-06-15 15:58:00,
2013-06-15 12:03:00,78.4,61.4,29.97,WNW,292,1.2,1.5,56,0.00,OVC,OVC,0.00,WeatherDisplay:10.37,2013-06-15 16:03:00,
2013-06-15 12:08:00,78.6,62.1,29.97,SSW,202,1.2,0.0,57,0.00,OVC,OVC,0.00,WeatherDisplay:10.37,2013-06-15 16:08:00,
2013-06-15 12:13:00,79.0,62.4,29.97,WSW,248,2.3,2.3,57,0.00,OVC,OVC,0.00,WeatherDisplay:10.37,2013-06-15 16:13:00,
2013-06-15 12:18:00,79.5,62.9,29.97,SE,135,0.0,0.0,57,0.00,OVC,OVC,0.00,WeatherDisplay:10.37,2013-06-15 16:18:00,
2013-06-15 12:23:00,79.5,62.9,29.97,SE,135,2.3,2.3,57,0.00,OVC,OVC,0.00,WeatherDisplay:10.37,2013-06-15 16:23:00,
2013-06-15 12:28:00,79.5,62.9,29.97,SSW,202,0.0,1.9,57,0.00,OVC,OVC,0.00,WeatherDisplay:10.37,2013-06-15 16:28:00,
2013-06-15 12:33:00,79.7,63.1,29.97,NW,315,0.0,0.0,57,0.00,OVC,OVC,0.00,WeatherDisplay:10.37,2013-06-15 16:33:00,
2013-06-15 12:38:00,79.5,60.9,29.97,ESE,112,0.0,0.0,53,0.00,OVC,OVC,0.00,WeatherDisplay:10.37,2013-06-15 16:38:00,
2013-06-15 12:43:00,80.1,61.4,29.97,SE,135,2.3,2.3,53,0.00,OVC,OVC,0.00,WeatherDisplay:10.37,2013-06-15 16:43:00,
2013-06-15 12:48:00,81.1,62.9,29.95,WSW,248,0.0,0.0,54,0.00,OVC,OVC,0.00,WeatherDisplay:10.37,2013-06-15 16:48:00,
2013-06-15 12:53:00,81.5,63.3,29.95,West,270,2.3,2.3,54,0.00,OVC,OVC,0.00,WeatherDisplay:10.37,2013-06-15 16:53:00,
2013-06-15 12:58:00,82.2,63.9,29.95,SE,135,0.0,0.0,54,0.00,OVC,OVC,0.00,WeatherDisplay:10.37,2013-06-15 16:58:00,
2013-06-15 13:03:00,82.6,63.2,29.95,NW,315,0.0,0.0,52,0.00,OVC,OVC,0.00,WeatherDisplay:10.37,2013-06-15 17:03:00,
2013-06-15 13:08:00,82.6,62.6,29.95,NNW,338,0.0,0.1,51,0.00,OVC,OVC,0.00,WeatherDisplay:10.37,2013-06-15 17:08:00,
2013-06-15 13:13:00,82.6,62.6,29.95,North,0,0.0,0.0,51,0.00,OVC,OVC,0.00,WeatherDisplay:10.37,2013-06-15 17:13:00,
2013-06-15 13:18:00,83.1,63.7,29.94,West,270,0.0,0.0,52,0.00,OVC,OVC,0.00,WeatherDisplay:10.37,2013-06-15 17:18:00,
2013-06-15 13:23:00,83.1,63.7,29.94,WSW,248,0.0,3.4,52,0.00,OVC,OVC,0.00,WeatherDisplay:10.37,2013-06-15 17:23:00,
2013-06-15 13:28:00,83.5,64.0,29.94,WNW,292,2.3,2.4,52,0.00,OVC,OVC,0.00,WeatherDisplay:10.37,2013-06-15 17:28:00,
2013-06-15 13:33:00,84.0,64.5,29.94,SW,225,0.0,0.0,52,0.00,OVC,OVC,0.00,WeatherDisplay:10.37,2013-06-15 17:33:00,
2013-06-15 13:38:00,84.4,64.8,29.94,SW,225,0.0,0.0,52,0.00,OVC,OVC,0.00,WeatherDisplay:10.37,2013-06-15 17:38:00,
2013-06-15 13:43:00,83.5,61.7,29.94,West,270,0.0,0.0,48,0.00,OVC,OVC,0.00,WeatherDisplay:10.37,2013-06-15 17:43:00,
2013-06-15 13:48:00,82.9,61.8,29.94,SW,225,1.2,0.0,49,0.00,OVC,OVC,0.00,WeatherDisplay:10.37,2013-06-15 17:48:00,
2013-06-15 13:53:00,82.9,61.8,29.94,West,270,0.0,0.0,49,0.00,OVC,OVC,0.00,WeatherDisplay:10.37,2013-06-15 17:53:00,
2013-06-15 13:58:00,82.9,61.8,29.94,WSW,248,0.0,0.0,49,0.00,OVC,OVC,0.00,WeatherDisplay:10.37,2013-06-15 17:58:00,
2013-06-15 14:03:00,82.6,61.5,29.94,WSW,248,0.0,0.0,49,0.00,OVC,OVC,0.00,WeatherDisplay:10.37,2013-06-15 18:03:00,
2013-06-15 14:08:00,82.0,61.0,29.94,SW,225,0.0,0.0,49,0.00,OVC,OVC,0.00,WeatherDisplay:10.37,2013-06-15 18:08:00,
2013-06-15 14:13:00,81.3,60.9,29.94,WSW,248,0.0,0.0,50,0.00,OVC,OVC,0.00,WeatherDisplay:10.37,2013-06-15 18:13:00,
2013-06-15 14:18:00,81.1,60.7,29.94,WSW,248,0.0,0.2,50,0.00,OVC,OVC,0.00,WeatherDisplay:10.37,2013-06-15 18:18:00,
2013-06-15 14:23:00,81.1,60.7,29.94,SW,225,0.0,0.0,50,0.00,OVC,OVC,0.00,WeatherDisplay:10.37,2013-06-15 18:23:00,
2013-06-15 14:28:00,81.1,61.8,29.94,ESE,112,0.0,0.0,52,0.00,OVC,OVC,0.00,WeatherDisplay:10.37,2013-06-15 18:28:00,
2013-06-15 14:33:00,81.1,61.8,29.94,SSW,202,0.0,0.0,52,0.00,OVC,OVC,0.00,WeatherDisplay:10.37,2013-06-15 18:33:00,
2013-06-15 14:38:00,80.8,61.5,29.94,West,270,0.0,0.0,52,0.00,OVC,OVC,0.00,WeatherDisplay:10.37,2013-06-15 18:38:00,
2013-06-15 14:43:00,80.4,61.2,29.94,West,270,0.0,0.0,52,0.00,OVC,OVC,0.00,WeatherDisplay:10.37,2013-06-15 18:43:00,
2013-06-15 14:48:00,80.2,61.0,29.94,West,270,0.0,0.0,52,0.00,OVC,OVC,0.00,WeatherDisplay:10.37,2013-06-15 18:48:00,
2013-06-15 14:53:00,79.9,61.2,29.94,NNW,338,0.0,0.0,53,0.00,OVC,OVC,0.00,WeatherDisplay:10.37,2013-06-15 18:53:00,
2013-06-15 14:58:00,79.2,60.6,29.94,WSW,248,0.0,0.0,53,0.00,OVC,OVC,0.00,WeatherDisplay:10.37,2013-06-15 18:58:00,
2013-06-15 15:03:00,78.4,60.4,29.95,WSW,248,0.0,0.0,54,0.00,OVC,OVC,0.00,WeatherDisplay:10.37,2013-06-15 19:03:00,
2013-06-15 15:08:00,78.4,60.4,29.95,West,270,0.0,0.0,54,0.00,OVC,OVC,0.00,WeatherDisplay:10.37,2013-06-15 19:08:00,
2013-06-15 15:13:00,78.1,60.6,29.95,West,270,0.0,0.0,55,0.00,OVC,OVC,0.00,WeatherDisplay:10.37,2013-06-15 19:13:00,
2013-06-15 15:18:00,77.7,60.8,29.95,West,270,0.0,0.0,56,0.00,OVC,OVC,0.00,WeatherDisplay:10.37,2013-06-15 19:18:00,
2013-06-15 15:23:00,77.7,60.8,29.95,West,270,0.0,0.0,56,0.00,OVC,OVC,0.00,WeatherDisplay:10.37,2013-06-15 19:23:00,
2013-06-15 15:28:00,77.5,61.6,29.95,WSW,248,1.2,1.2,58,0.00,OVC,OVC,0.00,WeatherDisplay:10.37,2013-06-15 19:28:00,
2013-06-15 15:33:00,77.5,61.6,29.95,WSW,248,1.2,1.2,58,0.00,OVC,OVC,0.00,WeatherDisplay:10.37,2013-06-15 19:33:00,
2013-06-15 15:38:00,77.5,61.1,29.95,WSW,248,1.2,1.7,57,0.00,OVC,OVC,0.00,WeatherDisplay:10.37,2013-06-15 19:38:00,
2013-06-15 15:43:00,77.5,61.1,29.95,WSW,248,2.3,2.3,57,0.00,OVC,OVC,0.00,WeatherDisplay:10.37,2013-06-15 19:43:00,
2013-06-15 15:48:00,77.4,60.4,29.95,WSW,248,2.3,2.3,56,0.00,OVC,OVC,0.00,WeatherDisplay:10.37,2013-06-15 19:48:00,
2013-06-15 15:53:00,77.5,60.6,29.95,SW,225,0.0,2.0,56,0.00,OVC,OVC,0.00,WeatherDisplay:10.37,2013-06-15 19:53:00,
2013-06-15 15:58:00,77.4,60.4,29.95,West,270,0.0,0.0,56,0.00,OVC,OVC,0.00,WeatherDisplay:10.37,2013-06-15 19:58:00,
2013-06-15 16:03:00,77.4,60.9,29.95,West,270,0.0,0.0,57,0.00,OVC,OVC,0.00,WeatherDisplay:10.37,2013-06-15 20:03:00,
2013-06-15 16:08:00,77.4,60.9,29.95,SW,225,1.2,1.4,57,0.00,OVC,OVC,0.00,WeatherDisplay:10.37,2013-06-15 20:08:00,
2013-06-15 16:13:00,77.2,60.8,29.95,SW,225,1.2,1.2,57,0.00,OVC,OVC,0.00,WeatherDisplay:10.37,2013-06-15 20:13:00,
2013-06-15 16:18:00,76.8,60.4,29.95,South,180,1.2,1.2,57,0.00,OVC,OVC,0.00,WeatherDisplay:10.37,2013-06-15 20:18:00,
2013-06-15 16:23:00,76.8,60.4,29.95,West,270,1.2,0.0,57,0.00,OVC,OVC,0.00,WeatherDisplay:10.37,2013-06-15 20:23:00,
2013-06-15 16:28:00,76.8,60.4,29.95,SW,225,0.0,0.0,57,0.00,OVC,OVC,0.00,WeatherDisplay:10.37,2013-06-15 20:28:00,
2013-06-15 16:33:00,76.8,60.4,29.95,SW,225,0.0,0.0,57,0.00,OVC,OVC,0.00,WeatherDisplay:10.37,2013-06-15 20:33:00,
2013-06-15 16:38:00,76.8,59.4,29.95,WSW,248,0.0,0.0,55,0.00,OVC,OVC,0.00,WeatherDisplay:10.37,2013-06-15 20:38:00,
2013-06-15 16:43:00,76.8,59.4,29.95,WSW,248,0.0,0.0,55,0.00,OVC,OVC,0.00,WeatherDisplay:10.37,2013-06-15 20:43:00,
2013-06-15 16:48:00,77.2,60.3,29.95,WNW,292,0.0,0.0,56,0.00,OVC,OVC,0.00,WeatherDisplay:10.37,2013-06-15 20:48:00,
2013-06-15 16:53:00,77.4,60.4,29.95,WSW,248,0.0,0.0,56,0.00,OVC,OVC,0.00,WeatherDisplay:10.37,2013-06-15 20:53:00,
2013-06-15 16:58:00,77.5,61.1,29.95,SW,225,0.0,0.0,57,0.00,OVC,OVC,0.00,WeatherDisplay:10.37,2013-06-15 20:58:00,
2013-06-15 17:03:00,77.4,60.9,29.95,SW,225,0.0,0.0,57,0.00,OVC,OVC,0.00,WeatherDisplay:10.37,2013-06-15 21:03:00,
2013-06-15 17:08:00,77.2,60.8,29.95,SSW,202,0.0,0.0,57,0.00,OVC,OVC,0.00,WeatherDisplay:10.37,2013-06-15 21:08:00,
2013-06-15 17:13:00,76.8,61.4,29.95,West,270,0.0,0.0,59,0.00,OVC,OVC,0.00,WeatherDisplay:10.37,2013-06-15 21:13:00,
2013-06-15 17:18:00,76.3,60.9,29.95,WNW,292,2.3,2.3,59,0.00,OVC,OVC,0.00,WeatherDisplay:10.37,2013-06-15 21:18:00,
2013-06-15 17:23:00,76.1,60.7,29.95,WSW,248,2.3,2.3,59,0.00,OVC,OVC,0.00,WeatherDisplay:10.37,2013-06-15 21:23:00,
2013-06-15 17:28:00,75.9,61.5,29.94,SW,225,0.0,1.6,61,0.00,OVC,OVC,0.00,WeatherDisplay:10.37,2013-06-15 21:28:00,
2013-06-15 17:33:00,75.9,61.5,29.94,SW,225,0.0,1.6,61,0.00,OVC,OVC,0.00,WeatherDisplay:10.37,2013-06-15 21:33:00,
2013-06-15 17:38:00,75.7,61.3,29.94,WNW,292,2.3,2.3,61,0.00,OVC,OVC,0.00,WeatherDisplay:10.37,2013-06-15 21:38:00,
2013-06-15 17:43:00,75.7,61.3,29.94,West,270,0.0,0.0,61,0.00,OVC,OVC,0.00,WeatherDisplay:10.37,2013-06-15 21:43:00,
2013-06-15 17:48:00,75.6,61.2,29.94,West,270,0.0,1.3,61,0.00,OVC,OVC,0.00,WeatherDisplay:10.37,2013-06-15 21:48:00,
2013-06-15 17:53:00,75.6,63.0,29.94,West,270,1.2,1.2,65,0.00,OVC,OVC,0.00,WeatherDisplay:10.37,2013-06-15 21:53:00,
2013-06-15 17:58:00,75.6,63.0,29.94,West,270,0.0,1.7,65,0.00,OVC,OVC,0.00,WeatherDisplay:10.37,2013-06-15 21:58:00,
2013-06-15 18:03:00,75.4,63.2,29.95,WNW,292,2.3,2.3,66,0.00,OVC,OVC,0.00,WeatherDisplay:10.37,2013-06-15 22:03:00,
2013-06-15 18:08:00,75.0,62.9,29.94,WSW,248,2.3,2.3,66,0.00,OVC,OVC,0.00,WeatherDisplay:10.37,2013-06-15 22:08:00,
2013-06-15 18:13:00,75.0,62.9,29.94,WNW,292,1.2,1.2,66,0.00,OVC,OVC,0.00,WeatherDisplay:10.37,2013-06-15 22:13:00,
2013-06-15 18:18:00,75.0,62.9,29.94,WSW,248,0.0,0.2,66,0.00,OVC,OVC,0.00,WeatherDisplay:10.37,2013-06-15 22:18:00,
2013-06-15 18:23:00,74.3,62.2,29.94,West,270,5.8,5.8,66,0.00,OVC,OVC,0.00,WeatherDisplay:10.37,2013-06-15 22:23:00,
2013-06-15 18:28:00,73.9,61.9,29.94,West,270,0.0,0.0,66,0.00,OVC,OVC,0.00,WeatherDisplay:10.37,2013-06-15 22:28:00,
2013-06-15 18:33:00,73.9,61.9,29.94,West,270,1.2,1.3,66,0.00,OVC,OVC,0.00,WeatherDisplay:10.37,2013-06-15 22:33:00,
2013-06-15 18:38:00,73.6,61.5,29.94,SW,225,0.0,0.0,66,0.00,OVC,OVC,0.00,WeatherDisplay:10.37,2013-06-15 22:38:00,
2013-06-15 18:43:00,73.6,63.2,29.94,WNW,292,0.0,0.0,70,0.00,OVC,OVC,0.00,WeatherDisplay:10.37,2013-06-15 22:43:00,
2013-06-15 18:48:00,73.2,63.2,29.94,West,270,2.3,2.3,71,0.00,OVC,OVC,0.00,WeatherDisplay:10.37,2013-06-15 22:48:00,
2013-06-15 18:53:00,73.0,63.1,29.94,WSW,248,1.2,0.0,71,0.00,OVC,OVC,0.00,WeatherDisplay:10.37,2013-06-15 22:53:00,
2013-06-15 18:58:00,72.7,63.1,29.93,West,270,0.0,0.7,72,0.00,OVC,OVC,0.00,WeatherDisplay:10.37,2013-06-15 22:58:00,
2013-06-15 19:03:00,72.5,63.0,29.93,North,0,0.0,0.0,72,0.00,OVC,OVC,0.00,WeatherDisplay:10.37,2013-06-15 23:03:00,
2013-06-15 19:08:00,72.3,62.8,29.93,WSW,248,0.0,0.0,72,0.00,OVC,OVC,0.00,WeatherDisplay:10.37,2013-06-15 23:08:00,
2013-06-15 19:13:00,72.3,63.2,29.93,WSW,248,0.0,1.6,73,0.00,OVC,OVC,0.00,WeatherDisplay:10.37,2013-06-15 23:13:00,
2013-06-15 19:18:00,72.5,63.4,29.92,WNW,292,0.0,0.0,73,0.00,OVC,OVC,0.00,WeatherDisplay:10.37,2013-06-15 23:18:00,
2013-06-15 19:23:00,72.7,63.5,29.92,WSW,248,0.0,0.0,73,0.00,OVC,OVC,0.00,WeatherDisplay:10.37,2013-06-15 23:23:00,
2013-06-15 19:28:00,73.0,63.9,29.92,West,270,0.0,0.0,73,0.00,OVC,OVC,0.00,WeatherDisplay:10.37,2013-06-15 23:28:00,
2013-06-15 19:33:00,73.0,63.9,29.92,West,270,0.0,0.0,73,0.00,OVC,OVC,0.00,WeatherDisplay:10.37,2013-06-15 23:33:00,
2013-06-15 19:38:00,73.6,64.4,29.91,West,270,0.0,0.0,73,0.00,OVC,OVC,0.00,WeatherDisplay:10.37,2013-06-15 23:38:00,
2013-06-15 19:43:00,73.8,64.6,29.91,West,270,0.0,0.0,73,0.00,OVC,OVC,0.00,WeatherDisplay:10.37,2013-06-15 23:43:00,
2013-06-15 19:48:00,73.8,64.6,29.91,SSW,202,0.0,0.0,73,0.00,OVC,OVC,0.00,WeatherDisplay:10.37,2013-06-15 23:48:00,
2013-06-15 19:53:00,73.6,64.4,29.91,West,270,0.0,0.0,73,0.00,OVC,OVC,0.00,WeatherDisplay:10.37,2013-06-15 23:53:00,
2013-06-15 19:58:00,73.2,63.2,29.91,West,270,0.0,0.0,71,0.00,OVC,OVC,0.00,WeatherDisplay:10.37,2013-06-15 23:58:00,
2013-06-15 20:03:00,73.2,63.2,29.91,West,270,0.0,0.0,71,0.00,OVC,OVC,0.00,WeatherDisplay:10.37,2013-06-16 00:03:00,
2013-06-15 20:08:00,72.5,63.0,29.89,West,270,0.0,0.0,72,0.00,OVC,OVC,0.00,WeatherDisplay:10.37,2013-06-16 00:08:00,
2013-06-15 20:13:00,72.3,62.8,29.89,West,270,0.0,0.0,72,0.00,OVC,OVC,0.00,WeatherDisplay:10.37,2013-06-16 00:13:00,
2013-06-15 20:18:00,72.0,62.4,29.89,West,270,0.0,0.0,72,0.00,OVC,OVC,0.00,WeatherDisplay:10.37,2013-06-16 00:18:00,
2013-06-15 20:23:00,72.0,62.8,29.89,West,270,0.0,0.0,73,0.00,OVC,OVC,0.00,WeatherDisplay:10.37,2013-06-16 00:23:00,
2013-06-15 20:28:00,71.8,62.7,29.89,West,270,0.0,0.0,73,0.00,OVC,OVC,0.00,WeatherDisplay:10.37,2013-06-16 00:28:00,
2013-06-15 20:33:00,71.4,62.3,29.89,West,270,0.0,0.0,73,0.00,OVC,OVC,0.00,WeatherDisplay:10.37,2013-06-16 00:33:00,
2013-06-15 20:38:00,71.2,62.1,29.89,West,270,0.0,0.0,73,0.00,OVC,OVC,0.00,WeatherDisplay:10.37,2013-06-16 00:38:00,
2013-06-15 20:43:00,71.2,62.1,29.89,West,270,0.0,0.0,73,0.00,OVC,OVC,0.00,WeatherDisplay:10.37,2013-06-16 00:43:00,
2013-06-15 20:48:00,70.9,61.8,29.89,NNW,338,0.0,0.0,73,0.00,OVC,OVC,0.00,WeatherDisplay:10.37,2013-06-16 00:48:00,
2013-06-15 20:53:00,70.5,62.2,29.89,NW,315,0.0,0.0,75,0.00,OVC,OVC,0.00,WeatherDisplay:10.37,2013-06-16 00:53:00,
2013-06-15 20:58:00,70.3,62.0,29.89,NW,315,0.0,0.0,75,0.00,OVC,OVC,0.00,WeatherDisplay:10.37,2013-06-16 00:58:00,
2013-06-15 21:03:00,70.0,62.1,29.89,NE,45,0.0,0.0,76,0.00,OVC,OVC,0.00,WeatherDisplay:10.37,2013-06-16 01:03:00,
2013-06-15 21:08:00,70.0,62.4,29.89,NE,45,0.0,0.0,77,0.00,OVC,OVC,0.00,WeatherDisplay:10.37,2013-06-16 01:08:00,
2013-06-15 21:13:00,69.6,62.1,29.89,NW,315,0.0,0.0,77,0.00,OVC,OVC,0.00,WeatherDisplay:10.37,2013-06-16 01:13:00,
2013-06-15 21:18:00,69.6,62.1,29.89,NW,315,0.0,0.0,77,0.00,OVC,OVC,0.00,WeatherDisplay:10.37,2013-06-16 01:18:00,
2013-06-15 21:23:00,69.6,62.1,29.89,NW,315,0.0,0.0,77,0.00,OVC,OVC,0.00,WeatherDisplay:10.37,2013-06-16 01:23:00,
2013-06-15 21:28:00,69.4,61.9,29.89,NW,315,0.0,0.0,77,0.00,OVC,OVC,0.00,WeatherDisplay:10.37,2013-06-16 01:28:00,
2013-06-15 21:33:00,69.3,62.1,29.90,NW,315,0.0,0.0,78,0.00,OVC,OVC,0.00,WeatherDisplay:10.37,2013-06-16 01:33:00,
2013-06-15 21:38:00,69.1,61.9,29.90,NW,315,0.0,0.0,78,0.00,OVC,OVC,0.00,WeatherDisplay:10.37,2013-06-16 01:38:00,
2013-06-15 21:43:00,68.9,61.8,29.90,NW,315,0.0,0.0,78,0.00,OVC,OVC,0.00,WeatherDisplay:10.37,2013-06-16 01:43:00,
2013-06-15 21:48:00,68.9,62.1,29.90,NW,315,0.0,0.0,79,0.00,OVC,OVC,0.00,WeatherDisplay:10.37,2013-06-16 01:48:00,
2013-06-15 21:53:00,68.9,62.1,29.90,NW,315,0.0,0.0,79,0.00,OVC,OVC,0.00,WeatherDisplay:10.37,2013-06-16 01:53:00,
2013-06-15 21:58:00,68.7,62.3,29.90,NW,315,0.0,0.0,80,0.00,OVC,OVC,0.00,WeatherDisplay:10.37,2013-06-16 01:58:00,
2013-06-15 22:03:00,68.5,62.1,29.90,NW,315,0.0,0.0,80,0.00,OVC,OVC,0.00,WeatherDisplay:10.37,2013-06-16 02:03:00,
2013-06-15 22:08:00,68.4,62.3,29.90,NW,315,0.0,0.0,81,0.00,OVC,OVC,0.00,WeatherDisplay:10.37,2013-06-16 02:08:00,
2013-06-15 22:13:00,68.4,62.3,29.90,NW,315,0.0,0.0,81,0.00,OVC,OVC,0.00,WeatherDisplay:10.37,2013-06-16 02:13:00,
2013-06-15 22:18:00,68.4,62.3,29.90,NW,315,0.0,0.0,81,0.00,OVC,OVC,0.00,WeatherDisplay:10.37,2013-06-16 02:18:00,
2013-06-15 22:23:00,68.4,62.3,29.90,NW,315,0.0,0.0,81,0.00,OVC,OVC,0.00,WeatherDisplay:10.37,2013-06-16 02:23:00,
2013-06-15 22:28:00,68.2,62.1,29.90,NW,315,0.0,0.0,81,0.00,OVC,OVC,0.00,WeatherDisplay:10.37,2013-06-16 02:28:00,
2013-06-15 22:33:00,68.2,62.1,29.90,SSE,158,0.0,0.0,81,0.00,OVC,OVC,0.00,WeatherDisplay:10.37,2013-06-16 02:33:00,
2013-06-15 22:38:00,68.2,62.1,29.90,SSE,158,0.0,0.0,81,0.00,OVC,OVC,0.00,WeatherDisplay:10.37,2013-06-16 02:38:00,
2013-06-15 22:43:00,68.2,62.1,29.90,SSE,158,0.0,0.0,81,0.00,OVC,OVC,0.00,WeatherDisplay:10.37,2013-06-16 02:43:00,
2013-06-15 22:48:00,68.2,62.1,29.90,SSE,158,0.0,0.0,81,0.00,OVC,OVC,0.00,WeatherDisplay:10.37,2013-06-16 02:48:00,
2013-06-15 22:53:00,68.2,62.1,29.90,SSE,158,0.0,0.0,81,0.00,OVC,OVC,0.00,WeatherDisplay:10.37,2013-06-16 02:53:00,
2013-06-15 22:58:00,67.8,62.1,29.90,SSE,158,0.0,0.0,82,0.00,OVC,OVC,0.00,WeatherDisplay:10.37,2013-06-16 02:58:00,
2013-06-15 23:03:00,67.8,62.1,29.90,SSE,158,0.0,0.0,82,0.00,OVC,OVC,0.00,WeatherDisplay:10.37,2013-06-16 03:03:00,
2013-06-15 23:08:00,67.8,62.1,29.89,SSE,158,0.0,0.0,82,0.00,OVC,OVC,0.00,WeatherDisplay:10.37,2013-06-16 03:08:00,
2013-06-15 23:13:00,67.6,61.9,29.89,West,270,0.0,0.0,82,0.00,OVC,OVC,0.00,WeatherDisplay:10.37,2013-06-16 03:13:00,
2013-06-15 23:18:00,67.5,62.1,29.89,West,270,0.0,0.0,83,0.00,OVC,OVC,0.00,WeatherDisplay:10.37,2013-06-16 03:18:00,
2013-06-15 23:23:00,67.3,61.9,29.89,West,270,0.0,0.0,83,0.00,OVC,OVC,0.00,WeatherDisplay:10.37,2013-06-16 03:23:00,
2013-06-15 23:28:00,67.3,61.9,29.89,West,270,0.0,0.0,83,0.00,OVC,OVC,0.00,WeatherDisplay:10.37,2013-06-16 03:28:00,
2013-06-15 23:33:00,67.1,62.1,29.89,West,270,0.0,0.0,84,0.00,OVC,OVC,0.00,WeatherDisplay:10.37,2013-06-16 03:33:00,
2013-06-15 23:38:00,67.1,62.1,29.88,West,270,0.0,0.0,84,0.00,OVC,OVC,0.00,WeatherDisplay:10.37,2013-06-16 03:38:00,
2013-06-15 23:43:00,66.9,61.9,29.88,West,270,0.0,0.0,84,0.00,OVC,OVC,0.00,WeatherDisplay:10.37,2013-06-16 03:43:00,
2013-06-15 23:48:00,66.9,61.9,29.88,West,270,0.0,0.0,84,0.00,OVC,OVC,0.00,WeatherDisplay:10.37,2013-06-16 03:48:00,
2013-06-15 23:53:00,66.7,61.7,29.88,West,270,0.0,0.0,84,0.00,OVC,OVC,0.00,WeatherDisplay:10.37,2013-06-16 03:53:00,
2013-06-15 23:58:00,66.7,61.7,29.88,West,270,0.0,0.0,84,0.00,OVC,OVC,0.00,WeatherDisplay:10.37,2013-06-16 03:58:00,